Time;durP1;ratioP1;P1;durP2;ratioP2;P2;SDS_P1;SDS_P2;PMS_P1;PMS_P2;Temp;Humidity;BMP_temperature;BMP_pressure;BME280_temperature;BME280_humidity;BME280_pressure;Samples;Min_cycle;Max_cycle;Signal;HPM_P1;HPM_P2
2023/10/16 00:01:09;;;;;;;2.35;1.00;;;;;;;9.39;100.00;92940.91;5066680;28;20052;-74
2023/10/16 00:03:41;;;;;;;1.42;0.70;;;;;;;9.51;100.00;92939.22;5063646;28;20048;-72
2023/10/16 00:06:08;;;;;;;2.90;1.15;;;;;;;9.21;100.00;92948.28;5065168;28;20109;-74
2023/10/16 00:08:46;;;;;;;2.47;0.90;;;;;;;9.20;100.00;92944.16;5063748;28;20071;-74
2023/10/16 00:11:16;;;;;;;2.70;1.00;;;;;;;9.28;100.00;92955.94;5064639;28;20167;-74
2023/10/16 00:13:44;;;;;;;1.23;0.70;;;;;;;9.28;100.00;92944.91;5066753;28;20412;-74
2023/10/16 00:16:15;;;;;;;1.77;0.68;;;;;;;9.27;100.00;92956.94;5065741;28;20053;-74
2023/10/16 00:18:45;;;;;;;1.42;0.68;;;;;;;9.27;100.00;92966.41;5061340;28;20052;-74
2023/10/16 00:21:13;;;;;;;1.50;0.60;;;;;;;9.11;100.00;92949.75;5066040;28;20139;-73
2023/10/16 00:23:40;;;;;;;0.90;0.60;;;;;;;9.17;100.00;92959.19;5066797;28;20056;-74
2023/10/16 00:26:09;;;;;;;1.85;0.63;;;;;;;9.16;100.00;92962.75;5061541;28;20048;-74
2023/10/16 00:28:36;;;;;;;1.20;0.70;;;;;;;9.02;100.00;92985.84;5064230;28;20438;-74
2023/10/16 00:31:04;;;;;;;1.35;0.60;;;;;;;9.02;100.00;92993.53;5066085;28;20052;-74
2023/10/16 00:33:33;;;;;;;1.17;0.70;;;;;;;9.13;100.00;92999.81;5064960;28;20398;-74
2023/10/16 00:36:02;;;;;;;1.58;0.88;;;;;;;9.08;100.00;93007.31;5063088;28;20806;-73
2023/10/16 00:38:36;;;;;;;1.85;0.80;;;;;;;9.16;100.00;93007.06;5063083;28;20416;-74
2023/10/16 00:41:17;;;;;;;1.50;0.95;;;;;;;8.82;100.00;93001.31;5059563;28;20168;-73
2023/10/16 00:43:45;;;;;;;1.33;0.93;;;;;;;8.78;100.00;92992.47;5064938;28;20048;-73
2023/10/16 00:46:17;;;;;;;1.95;1.10;;;;;;;8.72;100.00;92998.41;5066080;28;20500;-73
2023/10/16 00:48:44;;;;;;;1.45;0.80;;;;;;;8.85;100.00;93003.50;5060459;28;20040;-72
2023/10/16 00:51:13;;;;;;;1.58;1.10;;;;;;;8.78;100.00;93003.50;5066122;28;20049;-73
2023/10/16 00:53:41;;;;;;;1.85;1.15;;;;;;;8.78;100.00;93005.28;5066315;28;20049;-74
2023/10/16 00:56:12;;;;;;;1.77;1.42;;;;;;;8.84;100.00;93014.69;5060717;28;20059;-74
2023/10/16 00:58:39;;;;;;;2.03;1.50;;;;;;;8.81;100.00;93017.69;5066317;28;20052;-74
2023/10/16 01:01:09;;;;;;;1.50;1.20;;;;;;;8.67;100.00;93014.38;5066194;28;20080;-73
2023/10/16 01:03:37;;;;;;;2.83;1.48;;;;;;;8.64;100.00;93022.47;5066151;28;20044;-72
2023/10/16 01:06:09;;;;;;;2.20;1.80;;;;;;;8.54;100.00;93012.66;5059934;28;20049;-73
2023/10/16 01:08:44;;;;;;;3.25;2.13;;;;;;;8.41;100.00;92992.97;5066306;28;20048;-74
2023/10/16 01:11:14;;;;;;;2.30;1.55;;;;;;;8.42;100.00;93010.69;5061550;28;20076;-75
2023/10/16 01:13:41;;;;;;;2.72;1.80;;;;;;;8.20;100.00;93006.78;5064852;28;20048;-75
2023/10/16 01:16:09;;;;;;;3.13;1.88;;;;;;;8.43;100.00;93027.59;5065566;28;20060;-74
2023/10/16 01:18:37;;;;;;;2.50;1.90;;;;;;;8.39;100.00;93021.31;5062420;28;20053;-74
2023/10/16 01:21:05;;;;;;;2.00;1.45;;;;;;;8.33;100.00;93024.66;5065549;28;20102;-74
2023/10/16 01:23:35;;;;;;;2.45;2.22;;;;;;;8.36;100.00;93028.59;5065794;28;20045;-74
2023/10/16 01:26:02;;;;;;;2.40;1.60;;;;;;;8.33;100.00;93023.91;5060218;28;20152;-74
2023/10/16 01:28:30;;;;;;;2.15;1.83;;;;;;;8.39;100.00;93031.53;5060930;28;20060;-74
2023/10/16 01:30:57;;;;;;;2.03;1.40;;;;;;;8.46;100.00;93039.22;5062300;28;20040;-75
2023/10/16 01:33:24;;;;;;;2.00;1.35;;;;;;;8.41;100.00;93029.59;5065996;28;20132;-75
2023/10/16 01:35:51;;;;;;;2.58;1.27;;;;;;;8.39;100.00;93031.53;5058875;28;20061;-74
2023/10/16 01:38:19;;;;;;;1.80;1.23;;;;;;;8.46;100.00;93026.41;5065406;28;20538;-75
2023/10/16 01:40:48;;;;;;;2.10;1.40;;;;;;;8.55;100.00;93039.81;5066262;28;20048;-75
2023/10/16 01:43:15;;;;;;;1.90;1.48;;;;;;;8.63;100.00;93041.38;5060272;28;20056;-74
2023/10/16 01:45:50;;;;;;;2.20;1.70;;;;;;;8.80;100.00;93060.44;5065651;28;20060;-73
2023/10/16 01:48:20;;;;;;;2.05;1.55;;;;;;;8.69;100.00;93056.72;5064691;28;20052;-73
2023/10/16 01:50:50;;;;;;;2.40;1.65;;;;;;;8.73;100.00;93084.47;5069549;28;20080;-74
2023/10/16 01:53:20;;;;;;;2.40;1.63;;;;;;;8.58;100.00;93088.06;5069376;28;20044;-75
2023/10/16 01:55:54;;;;;;;2.35;1.90;;;;;;;8.26;100.00;93072.53;5070050;28;20060;-73
2023/10/16 01:58:22;;;;;;;2.92;2.28;;;;;;;8.22;100.00;93077.25;5065246;28;20052;-74
2023/10/16 02:00:50;;;;;;;3.17;2.45;;;;;;;8.42;100.00;93090.03;5069458;28;20098;-74
2023/10/16 02:03:17;;;;;;;4.10;2.75;;;;;;;8.26;100.00;93093.00;5065883;28;20040;-75
2023/10/16 02:05:46;;;;;;;3.88;2.22;;;;;;;8.42;100.00;93095.16;5067675;28;20458;-74
2023/10/16 02:08:13;;;;;;;3.30;2.65;;;;;;;8.57;100.00;93104.44;5069069;28;20041;-74
2023/10/16 02:10:41;;;;;;;3.53;2.80;;;;;;;8.27;100.00;93092.00;5064956;28;20433;-74
2023/10/16 02:13:10;;;;;;;3.97;2.83;;;;;;;8.25;100.00;93124.69;5067496;28;20052;-74
2023/10/16 02:15:37;;;;;;;3.72;2.65;;;;;;;7.86;100.00;93089.44;5069015;28;20049;-75
2023/10/16 02:18:06;;;;;;;4.45;3.08;;;;;;;7.94;100.00;93115.81;5063966;28;20071;-75
2023/10/16 02:20:36;;;;;;;3.70;2.75;;;;;;;7.84;100.00;93109.31;5061889;28;20051;-75
2023/10/16 02:23:06;;;;;;;3.17;2.88;;;;;;;7.75;100.00;93090.03;5068099;28;20048;-74
2023/10/16 02:25:34;;;;;;;4.05;3.65;;;;;;;8.03;100.00;93119.75;5061297;28;20106;-74
2023/10/16 02:28:02;;;;;;;3.70;3.20;;;;;;;8.22;100.00;93113.09;5063788;28;20492;-75
2023/10/16 02:30:35;;;;;;;3.72;3.30;;;;;;;8.38;100.00;93111.88;5065367;28;20067;-75
2023/10/16 02:33:13;;;;;;;4.78;4.07;;;;;;;8.52;100.00;93128.03;5064889;28;20044;-75
2023/10/16 02:35:42;;;;;;;4.82;4.20;;;;;;;8.49;100.00;93119.94;5066598;28;20055;-76
2023/10/16 02:38:13;;;;;;;4.88;3.70;;;;;;;8.48;100.00;93114.03;5068608;28;20110;-74
2023/10/16 02:40:43;;;;;;;4.80;3.70;;;;;;;8.18;100.00;93142.59;5062731;28;20045;-75
2023/10/16 02:43:18;;;;;;;5.45;4.47;;;;;;;8.18;100.00;93139.25;5062893;28;20440;-74
2023/10/16 02:45:51;;;;;;;6.35;4.40;;;;;;;7.63;100.00;93151.16;5064485;28;20186;-73
2023/10/16 02:48:19;;;;;;;6.00;4.80;;;;;;;7.67;100.00;93151.56;5062200;28;20126;-74
2023/10/16 02:50:49;;;;;;;5.07;4.20;;;;;;;7.28;100.00;93115.47;5068065;28;20130;-74
2023/10/16 02:53:21;;;;;;;5.22;4.40;;;;;;;7.30;100.00;93146.72;5062851;28;20102;-72
2023/10/16 02:55:52;;;;;;;7.20;4.45;;;;;;;7.26;100.00;93148.88;5068059;28;20045;-74
2023/10/16 02:58:22;;;;;;;4.82;4.43;;;;;;;7.28;100.00;93152.03;5065762;28;20489;-74
2023/10/16 03:00:53;;;;;;;4.97;4.43;;;;;;;7.34;100.00;93164.06;5065414;28;20045;-73
2023/10/16 03:03:20;;;;;;;6.15;5.03;;;;;;;7.45;99.58;93167.06;5068280;28;20044;-74
2023/10/16 03:05:49;;;;;;;5.65;4.70;;;;;;;7.49;99.15;93166.47;5067439;28;20059;-74
2023/10/16 03:08:18;;;;;;;7.93;4.70;;;;;;;7.37;98.61;93167.19;5067795;28;20106;-74
2023/10/16 03:10:46;;;;;;;6.03;4.65;;;;;;;7.35;99.24;93177.59;5061208;28;20044;-74
2023/10/16 03:13:15;;;;;;;7.18;5.20;;;;;;;7.34;99.07;93181.16;5063468;28;20045;-74
2023/10/16 03:15:46;;;;;;;6.05;5.10;;;;;;;7.22;98.87;93186.00;5066199;28;20084;-72
2023/10/16 03:18:22;;;;;;;6.32;4.90;;;;;;;7.13;100.00;93194.81;5062182;28;20088;-73
2023/10/16 03:20:49;;;;;;;5.60;5.00;;;;;;;7.08;99.74;93170.59;5066782;28;20048;-74
2023/10/16 03:23:18;;;;;;;6.05;5.15;;;;;;;7.25;99.23;93180.50;5065635;28;20048;-74
2023/10/16 03:25:51;;;;;;;5.53;4.70;;;;;;;7.37;98.98;93174.88;5065864;28;20557;-75
2023/10/16 03:28:18;;;;;;;6.65;5.20;;;;;;;7.39;98.60;93170.34;5061821;28;20521;-74
2023/10/16 03:30:45;;;;;;;6.00;4.72;;;;;;;7.27;98.76;93167.56;5064681;28;20505;-73
2023/10/16 03:33:15;;;;;;;8.23;5.55;;;;;;;7.29;98.82;93157.94;5061992;28;20049;-75
2023/10/16 03:35:45;;;;;;;6.97;5.07;;;;;;;7.21;99.13;93167.34;5067108;28;20064;-75
2023/10/16 03:38:20;;;;;;;6.10;4.63;;;;;;;7.20;98.89;93163.22;5065408;28;20515;-74
2023/10/16 03:40:51;;;;;;;6.75;5.72;;;;;;;7.34;98.50;93187.06;5060849;28;20077;-74
2023/10/16 03:43:19;;;;;;;6.85;5.78;;;;;;;7.20;98.27;93193.88;5064630;28;20059;-74
2023/10/16 03:45:46;;;;;;;6.97;5.43;;;;;;;7.41;98.57;93210.06;5063974;28;20056;-73
2023/10/16 03:48:16;;;;;;;6.70;5.97;;;;;;;7.35;97.81;93214.19;5061390;28;20432;-73
2023/10/16 03:50:43;;;;;;;10.55;6.30;;;;;;;7.15;97.84;93206.41;5067062;28;20048;-72
2023/10/16 03:53:13;;;;;;;6.55;5.43;;;;;;;7.05;98.47;93204.19;5064194;28;20048;-73
2023/10/16 03:55:48;;;;;;;7.22;6.22;;;;;;;7.19;98.29;93199.16;5063751;28;20051;-73
2023/10/16 03:58:16;;;;;;;7.32;5.72;;;;;;;7.17;97.97;93196.00;5063465;28;20040;-73
2023/10/16 04:00:57;;;;;;;9.00;6.38;;;;;;;6.86;98.78;93169.91;5058283;28;20052;-74
2023/10/16 04:03:27;;;;;;;6.88;6.18;;;;;;;7.09;98.04;93215.59;5062767;28;20412;-72
2023/10/16 04:05:54;;;;;;;9.02;6.82;;;;;;;7.15;98.27;93233.72;5066324;28;20102;-73
2023/10/16 04:08:25;;;;;;;7.40;5.88;;;;;;;7.10;97.83;93229.19;5067233;28;20048;-73
2023/10/16 04:10:54;;;;;;;7.82;6.20;;;;;;;7.09;98.13;93217.38;5065925;28;20520;-72
2023/10/16 04:13:25;;;;;;;7.68;6.82;;;;;;;7.18;97.92;93212.91;5063665;28;20056;-73
2023/10/16 04:18:46;;;;;;;7.10;6.07;;;;;;;7.16;97.85;93227.63;5049195;28;20094;-73
2023/10/16 04:23:54;;;;;;;8.43;6.72;;;;;;;7.07;99.02;93224.44;5053595;28;20394;-73
2023/10/16 04:29:26;;;;;;;7.57;5.85;;;;;;;7.03;98.88;93231.69;5061726;28;20556;-73
2023/10/16 04:34:39;;;;;;;9.02;7.28;;;;;;;7.08;98.30;93242.13;5063542;28;20048;-73
2023/10/16 04:45:26;;;;;;;7.18;5.78;;;;;;;6.93;97.26;93254.19;5061339;28;20051;-73
2023/10/16 04:48:07;;;;;;;8.25;5.80;;;;;;;6.95;97.50;93268.38;5063403;28;20052;-73
2023/10/16 04:50:39;;;;;;;7.57;5.72;;;;;;;7.06;96.90;93276.50;5066207;28;20044;-73
2023/10/16 04:53:07;;;;;;;7.13;5.90;;;;;;;7.20;96.37;93282.47;5063850;28;20420;-73
2023/10/16 04:55:53;;;;;;;9.10;5.88;;;;;;;7.34;95.80;93291.81;5062112;28;20135;-73
2023/10/16 04:58:39;;;;;;;7.65;5.50;;;;;;;7.24;95.29;93299.03;5065331;28;20052;-72
2023/10/16 05:01:33;;;;;;;;;;;;;;;7.32;94.96;93318.53;5063402;28;20135;-74
2023/10/16 05:04:49;;;;;;;7.90;6.00;;;;;;;7.16;95.84;93315.28;5064468;28;19924;-73
2023/10/16 05:07:17;;;;;;;9.02;6.40;;;;;;;7.03;97.15;93313.41;5062590;28;20206;-73
2023/10/16 05:15:37;;;;;;;8.30;6.15;;;;;;;7.29;96.53;93301.00;5040568;28;20044;-72
2023/10/16 05:18:11;;;;;;;7.13;5.93;;;;;;;7.09;96.19;93297.34;5062985;28;20064;-73
2023/10/16 05:21:18;;;;;;;8.32;5.90;;;;;;;6.92;96.89;93301.16;5063502;28;20082;-73
2023/10/16 06:15:52;;;;;;;;;;;;;;;7.13;89.17;93419.59;5070065;28;20067;-72
2023/10/16 06:18:19;;;;;;;5.00;3.50;;;;;;;7.18;88.68;93435.94;5066190;28;19920;-72
2023/10/16 06:20:46;;;;;;;6.28;3.90;;;;;;;7.26;88.26;93434.25;5069767;28;20048;-73
2023/10/16 06:23:13;;;;;;;5.40;4.07;;;;;;;7.25;87.46;93436.00;5067079;28;20049;-73
2023/10/16 06:25:40;;;;;;;7.68;3.80;;;;;;;7.24;88.27;93428.53;5069376;28;20043;-72
2023/10/16 06:28:11;;;;;;;5.85;3.97;;;;;;;7.41;86.85;93432.41;5069078;28;20519;-72
2023/10/16 06:30:38;;;;;;;5.75;3.70;;;;;;;7.62;85.91;93436.72;5063995;28;20072;-72
2023/10/16 06:33:06;;;;;;;5.07;3.10;;;;;;;7.83;84.42;93444.53;5070212;28;20080;-73
2023/10/16 06:35:33;;;;;;;5.90;3.30;;;;;;;7.67;82.79;93445.56;5069247;28;20044;-72
2023/10/16 06:38:00;;;;;;;6.60;3.10;;;;;;;7.35;83.25;93392.25;5069187;28;20048;-72
2023/10/16 06:40:27;;;;;;;4.85;3.30;;;;;;;7.85;83.38;93445.91;5069468;28;20052;-72
2023/10/16 06:43:09;;;;;;;4.45;3.30;;;;;;;7.88;81.64;93435.31;5069407;28;20052;-72
2023/10/16 06:45:42;;;;;;;4.35;2.75;;;;;;;7.66;80.71;93411.56;5069766;28;20044;-72
2023/10/16 06:48:15;;;;;;;3.10;2.40;;;;;;;7.84;80.15;93446.91;5069542;28;20048;-72
2023/10/16 06:50:53;;;;;;;4.43;2.38;;;;;;;7.83;80.36;93452.97;5069882;28;20176;-72
2023/10/16 06:53:20;;;;;;;8.88;4.93;;;;;;;7.48;81.85;93453.72;5068591;28;20047;-72
2023/10/16 06:55:47;;;;;;;4.13;2.63;;;;;;;7.69;81.52;93464.88;5069607;28;20055;-75
2023/10/16 06:58:14;;;;;;;4.53;2.40;;;;;;;7.78;81.00;93457.06;5067024;28;20048;-75
2023/10/16 07:00:47;;;;;;;4.57;3.17;;;;;;;7.74;81.23;93456.66;5069512;28;20448;-74
2023/10/16 07:03:14;;;;;;;4.47;2.75;;;;;;;7.78;80.67;93449.41;5067410;28;20050;-75
2023/10/16 07:05:44;;;;;;;4.50;2.35;;;;;;;7.72;81.08;93453.47;5071480;28;20377;-75
2023/10/16 07:08:16;;;;;;;3.90;2.40;;;;;;;7.89;81.97;93461.69;5071968;28;20040;-75
2023/10/16 07:10:48;;;;;;;3.33;2.42;;;;;;;7.78;80.88;93462.19;5067878;28;20051;-75
2023/10/16 07:13:16;;;;;;;4.55;2.58;;;;;;;7.77;81.60;93469.06;5071017;28;20041;-75
2023/10/16 07:15:46;;;;;;;4.90;2.97;;;;;;;7.67;81.67;93460.91;5071081;28;20048;-75
2023/10/16 07:18:14;;;;;;;4.43;2.58;;;;;;;7.70;81.27;93458.81;5066360;28;20040;-75
2023/10/16 07:20:54;;;;;;;5.72;2.63;;;;;;;7.86;80.97;93467.16;5068565;28;20043;-75
2023/10/16 07:23:24;;;;;;;7.05;3.70;;;;;;;7.82;81.05;93455.72;5067710;28;20048;-75
2023/10/16 07:25:54;;;;;;;4.75;3.10;;;;;;;7.78;80.44;93460.41;5067798;28;20051;-74
2023/10/16 07:28:21;;;;;;;6.25;3.20;;;;;;;7.65;80.98;93443.22;5071241;28;20044;-74
2023/10/16 07:30:50;;;;;;;5.97;3.10;;;;;;;7.67;80.18;93440.47;5069378;28;20135;-75
2023/10/16 07:33:17;;;;;;;7.20;2.97;;;;;;;7.94;80.50;93461.91;5068114;28;20040;-75
2023/10/16 07:35:45;;;;;;;3.75;2.40;;;;;;;8.12;79.89;93470.88;5069902;28;20109;-75
2023/10/16 07:38:12;;;;;;;3.35;2.05;;;;;;;8.10;78.22;93442.13;5071403;28;20129;-75
2023/10/16 07:40:39;;;;;;;6.07;3.15;;;;;;;8.51;77.26;93466.13;5070058;28;20052;-74
2023/10/16 07:43:06;;;;;;;3.38;2.22;;;;;;;8.64;76.01;93468.81;5072582;28;20060;-74
2023/10/16 07:45:34;;;;;;;7.25;3.28;;;;;;;8.49;75.93;93474.03;5069662;28;20075;-74
2023/10/16 07:48:16;;;;;;;4.35;2.50;;;;;;;8.40;75.57;93472.59;5069594;28;20919;-73
2023/10/16 07:50:43;;;;;;;4.63;2.35;;;;;;;8.57;75.83;93464.63;5069513;28;20048;-74
2023/10/16 07:53:17;;;;;;;4.57;2.70;;;;;;;8.75;75.06;93461.56;5072256;28;20428;-74
2023/10/16 07:55:50;;;;;;;6.25;2.78;;;;;;;8.48;74.32;93464.75;5069526;28;20048;-73
2023/10/16 07:58:23;;;;;;;4.20;2.28;;;;;;;8.62;74.82;93467.41;5071268;28;20051;-74
2023/10/16 08:01:03;;;;;;;3.80;2.00;;;;;;;8.96;73.99;93470.88;5070571;28;20063;-75
2023/10/16 08:03:36;;;;;;;4.43;2.25;;;;;;;8.91;72.63;93453.53;5073208;28;20048;-74
2023/10/16 08:06:04;;;;;;;5.28;3.70;;;;;;;9.13;72.64;93463.66;5070305;28;20097;-73
2023/10/16 08:08:36;;;;;;;3.60;2.63;;;;;;;9.38;72.34;93462.28;5062768;28;20067;-73
2023/10/16 08:11:12;;;;;;;3.35;2.00;;;;;;;9.36;71.13;93465.84;5069454;28;20147;-73
2023/10/16 08:13:46;;;;;;;2.45;1.52;;;;;;;8.98;70.40;93427.13;5074512;28;20136;-74
2023/10/16 08:16:17;;;;;;;4.20;2.10;;;;;;;9.07;70.88;93459.28;5066263;28;20098;-74
2023/10/16 08:18:48;;;;;;;5.15;2.63;;;;;;;9.20;71.45;93464.44;5064466;28;20056;-73
2023/10/16 08:21:23;;;;;;;3.58;2.22;;;;;;;9.19;70.15;93460.31;5065403;28;20076;-74
2023/10/16 08:23:53;;;;;;;3.70;2.10;;;;;;;9.39;69.02;93466.44;5066884;28;20059;-74
2023/10/16 08:26:29;;;;;;;3.38;2.20;;;;;;;9.43;68.88;93478.66;5067583;28;20132;-73
2023/10/16 08:28:57;;;;;;;2.92;1.98;;;;;;;9.39;69.71;93477.47;5067495;28;20095;-73
2023/10/16 08:31:24;;;;;;;3.38;1.73;;;;;;;9.60;67.48;93478.28;5068054;28;20040;-74
2023/10/16 08:33:55;;;;;;;4.40;2.00;;;;;;;9.87;68.52;93447.50;5067422;28;20059;-74
2023/10/16 08:36:22;;;;;;;3.15;1.90;;;;;;;10.30;64.91;93456.50;5068967;28;20540;-74
2023/10/16 08:38:55;;;;;;;3.30;1.95;;;;;;;10.29;63.96;93471.13;5068474;28;20052;-74
2023/10/16 08:41:32;;;;;;;5.25;2.47;;;;;;;9.93;64.64;93479.25;5067643;28;20113;-74
2023/10/16 08:44:05;;;;;;;4.07;1.85;;;;;;;9.97;65.91;93452.22;5067610;28;20159;-74
2023/10/16 08:46:34;;;;;;;2.83;1.80;;;;;;;9.81;65.45;93471.41;5066309;28;20044;-73
2023/10/16 08:49:03;;;;;;;2.83;1.92;;;;;;;9.85;65.88;93460.53;5067633;28;20565;-73
2023/10/16 08:51:31;;;;;;;5.78;2.40;;;;;;;10.25;65.19;93467.41;5068874;28;20193;-74
2023/10/16 08:54:03;;;;;;;2.58;1.70;;;;;;;10.24;64.08;93465.03;5068746;28;20052;-73
2023/10/16 08:56:30;;;;;;;4.45;2.10;;;;;;;10.37;63.94;93479.63;5067835;28;20443;-74
2023/10/16 08:58:57;;;;;;;2.92;1.67;;;;;;;10.27;63.44;93470.53;5067577;28;20059;-74
2023/10/16 09:01:28;;;;;;;4.45;2.13;;;;;;;10.01;64.40;93476.50;5068616;28;20055;-74
2023/10/16 09:04:05;;;;;;;5.05;2.00;;;;;;;10.00;64.16;93462.09;5067799;28;20048;-74
2023/10/16 09:06:37;;;;;;;5.15;2.90;;;;;;;10.21;62.42;93465.41;5067406;28;20400;-73
2023/10/16 09:09:12;;;;;;;2.70;1.50;;;;;;;10.54;63.27;93479.97;5065680;28;20103;-74
2023/10/16 09:11:40;;;;;;;5.45;1.52;;;;;;;10.66;62.12;93480.16;5070200;28;20076;-74
2023/10/16 09:14:08;;;;;;;3.58;1.65;;;;;;;10.93;62.45;93485.97;5067644;28;20221;-75
2023/10/16 09:16:35;;;;;;;3.72;1.52;;;;;;;10.86;61.46;93471.56;5067518;28;20607;-74
2023/10/16 09:19:07;;;;;;;2.03;1.30;;;;;;;10.90;61.61;93485.59;5069799;28;20063;-74
2023/10/16 09:21:38;;;;;;;3.85;1.83;;;;;;;11.02;61.13;93475.47;5065551;28;20748;-74
2023/10/16 09:24:07;;;;;;;3.33;1.90;;;;;;;10.95;60.78;93489.13;5067251;28;20060;-75
2023/10/16 09:26:37;;;;;;;7.25;2.75;;;;;;;10.69;61.28;93488.22;5068231;28;20044;-75
2023/10/16 09:29:13;;;;;;;6.40;2.97;;;;;;;10.60;61.81;93484.31;5068633;28;20052;-74
2023/10/16 09:31:43;;;;;;;5.85;1.70;;;;;;;10.99;61.40;93476.66;5067981;28;20051;-74
2023/10/16 09:34:13;;;;;;;4.50;1.88;;;;;;;11.12;58.48;93464.72;5067249;28;20087;-74
2023/10/16 09:36:41;;;;;;;2.88;1.83;;;;;;;11.32;58.01;93473.13;5068722;28;20055;-75
2023/10/16 09:39:17;;;;;;;7.88;5.03;;;;;;;11.34;57.93;93476.25;5069326;28;20053;-74
2023/10/16 09:41:46;;;;;;;3.10;1.55;;;;;;;11.59;56.92;93464.44;5068070;28;20068;-74
2023/10/16 09:44:23;;;;;;;3.83;1.70;;;;;;;11.76;58.78;93462.91;5070401;28;20048;-74
2023/10/16 09:46:53;;;;;;;4.13;1.40;;;;;;;11.74;54.85;93453.81;5069389;28;20508;-75
2023/10/16 09:49:23;;;;;;;2.80;1.30;;;;;;;11.92;55.97;93453.06;5064360;28;20076;-74
2023/10/16 09:51:57;;;;;;;3.63;1.50;;;;;;;11.72;54.57;93448.88;5071414;28;20411;-74
2023/10/16 09:54:26;;;;;;;3.72;2.05;;;;;;;11.72;55.10;93451.44;5070560;28;20076;-74
2023/10/16 09:56:59;;;;;;;3.97;1.40;;;;;;;11.74;55.75;93439.19;5070356;28;20048;-74
2023/10/16 09:59:32;;;;;;;2.80;1.45;;;;;;;11.89;54.83;93438.03;5066706;28;20457;-74
2023/10/16 10:02:05;;;;;;;5.00;1.67;;;;;;;11.97;55.30;93432.63;5071843;28;20416;-74
2023/10/16 10:04:35;;;;;;;2.65;1.70;;;;;;;11.71;55.22;93421.56;5070307;28;20045;-73
2023/10/16 10:07:13;;;;;;;1.88;1.40;;;;;;;11.82;55.60;93447.63;5066632;28;20056;-73
2023/10/16 10:09:44;;;;;;;3.00;1.80;;;;;;;11.62;56.00;93407.41;5072685;28;21384;-75
2023/10/16 10:12:28;;;;;;;3.92;1.45;;;;;;;11.98;55.11;93411.03;5074531;28;20539;-75
2023/10/16 10:15:12;;;;;;;3.47;1.67;;;;;;;12.27;54.67;93395.16;5067923;28;20146;-75
2023/10/16 10:17:40;;;;;;;6.47;2.00;;;;;;;12.35;55.18;93391.50;5073062;28;20044;-75
2023/10/16 10:20:16;;;;;;;3.67;1.60;;;;;;;12.79;53.37;93423.06;5071326;28;20045;-75
2023/10/16 10:22:46;;;;;;;3.88;1.52;;;;;;;12.49;52.29;93398.06;5072824;28;20051;-74
2023/10/16 10:25:22;;;;;;;3.85;1.27;;;;;;;12.50;48.82;93420.22;5068515;28;20765;-74
2023/10/16 10:27:50;;;;;;;2.85;1.33;;;;;;;12.45;48.32;93409.00;5071351;28;20059;-74
2023/10/16 10:30:18;;;;;;;2.72;1.20;;;;;;;12.49;48.92;93412.75;5070957;28;20055;-75
2023/10/16 10:32:53;;;;;;;4.25;1.60;;;;;;;12.35;47.69;93417.25;5072118;28;20098;-73
2023/10/16 10:35:26;;;;;;;1.80;1.02;;;;;;;12.11;47.53;93410.16;5071108;28;20048;-74
2023/10/16 10:38:07;;;;;;;4.07;1.63;;;;;;;11.99;47.21;93379.13;5072084;28;20131;-73
2023/10/16 10:40:35;;;;;;;1.77;0.95;;;;;;;12.20;46.45;93413.22;5073431;28;20044;-74
2023/10/16 10:43:04;;;;;;;2.55;1.13;;;;;;;12.38;48.36;93409.88;5072543;28;20492;-73
2023/10/16 10:45:39;;;;;;;5.10;1.98;;;;;;;12.54;46.79;93412.84;5071991;28;20794;-73
2023/10/16 10:48:09;;;;;;;8.68;7.75;;;;;;;12.29;47.79;93411.97;5075058;28;20093;-73
2023/10/16 10:50:39;;;;;;;4.28;2.38;;;;;;;12.04;47.97;93412.03;5071157;28;20777;-74
2023/10/16 10:53:14;;;;;;;2.92;1.30;;;;;;;12.22;48.64;93416.38;5071589;28;20548;-74
2023/10/16 10:55:57;;;;;;;3.63;1.50;;;;;;;12.10;50.07;93403.44;5070912;28;20072;-74
2023/10/16 10:58:31;;;;;;;3.13;1.50;;;;;;;12.36;49.27;93406.72;5070092;28;20048;-74
2023/10/16 11:01:15;;;;;;;2.15;1.42;;;;;;;12.32;49.81;93402.22;5069363;28;20408;-74
2023/10/16 11:03:45;;;;;;;3.33;1.63;;;;;;;12.49;48.72;93403.19;5070955;28;20510;-74
2023/10/16 11:06:18;;;;;;;2.10;1.20;;;;;;;12.49;48.99;93398.06;5069980;28;20055;-74
2023/10/16 11:08:48;;;;;;;2.13;1.30;;;;;;;12.58;47.54;93390.81;5070247;28;20052;-74
2023/10/16 11:11:16;;;;;;;2.80;0.80;;;;;;;12.70;45.30;93396.78;5068814;28;20504;-74
2023/10/16 11:13:46;;;;;;;3.08;1.20;;;;;;;12.80;43.91;93409.19;5070752;28;20044;-74
2023/10/16 11:16:14;;;;;;;2.38;1.17;;;;;;;12.68;45.07;93398.81;5069293;28;20503;-75
2023/10/16 11:18:43;;;;;;;2.85;0.98;;;;;;;12.55;44.48;93402.34;5068830;28;20040;-74
2023/10/16 11:21:13;;;;;;;3.75;1.35;;;;;;;12.39;44.77;93395.19;5068809;28;20043;-74
2023/10/16 11:23:42;;;;;;;1.88;0.80;;;;;;;12.62;45.09;93394.53;5070652;28;20045;-75
2023/10/16 11:26:13;;;;;;;6.50;2.40;;;;;;;12.58;46.66;93390.03;5066279;28;20431;-75
2023/10/16 11:28:48;;;;;;;3.63;1.75;;;;;;;12.35;46.17;93384.53;5069370;28;20045;-74
2023/10/16 11:31:17;;;;;;;2.97;1.20;;;;;;;12.28;46.03;93376.09;5068949;28;20492;-75
2023/10/16 11:33:47;;;;;;;2.50;1.40;;;;;;;12.45;46.78;93370.38;5066798;28;20044;-75
2023/10/16 11:36:14;;;;;;;5.05;1.30;;;;;;;12.73;46.20;93384.50;5068742;28;20620;-74
2023/10/16 11:38:44;;;;;;;2.40;1.13;;;;;;;12.31;46.64;93382.63;5064577;28;20084;-74
2023/10/16 11:41:12;;;;;;;2.30;1.17;;;;;;;12.54;46.12;93387.88;5068399;28;20049;-74
2023/10/16 11:43:47;;;;;;;2.13;1.17;;;;;;;12.65;46.41;93386.34;5065974;28;20044;-75
2023/10/16 11:46:28;;;;;;;2.33;0.77;;;;;;;12.85;45.17;93372.44;5066523;28;20178;-75
2023/10/16 11:48:57;;;;;;;3.03;1.50;;;;;;;12.72;45.08;93352.00;5067305;28;20051;-75
2023/10/16 11:51:25;;;;;;;2.67;1.45;;;;;;;12.90;45.59;93372.56;5068690;28;20063;-73
2023/10/16 11:53:59;;;;;;;3.50;1.30;;;;;;;12.85;44.99;93354.38;5068011;28;20135;-74
2023/10/16 11:56:26;;;;;;;2.90;1.40;;;;;;;13.06;44.52;93370.38;5071872;28;20040;-75
2023/10/16 11:58:54;;;;;;;4.03;1.48;;;;;;;12.89;45.49;93354.72;5068238;28;20048;-74
2023/10/16 12:01:21;;;;;;;3.72;1.08;;;;;;;12.94;45.40;93370.31;5067593;28;20048;-75
2023/10/16 12:03:48;;;;;;;2.35;1.20;;;;;;;12.70;45.31;93373.59;5067816;28;20143;-74
2023/10/16 12:06:15;;;;;;;3.25;1.40;;;;;;;13.03;45.24;93370.78;5071648;28;20051;-75
2023/10/16 12:08:42;;;;;;;2.60;1.33;;;;;;;13.21;46.00;93364.78;5064010;28;20045;-75
2023/10/16 12:11:14;;;;;;;2.35;1.05;;;;;;;13.38;45.69;93364.13;5069781;28;20048;-74
2023/10/16 12:13:41;;;;;;;1.67;0.98;;;;;;;13.49;44.94;93368.53;5067884;28;20049;-76
2023/10/16 12:16:07;;;;;;;3.28;1.10;;;;;;;13.20;44.15;93355.47;5071854;28;20060;-75
2023/10/16 12:18:34;;;;;;;5.03;2.58;;;;;;;13.29;44.89;93361.88;5065783;28;20041;-75
2023/10/16 12:21:05;;;;;;;4.00;1.20;;;;;;;13.20;44.51;93345.94;5067092;28;20062;-74
2023/10/16 12:23:37;;;;;;;3.17;1.55;;;;;;;13.16;42.17;93349.19;5068686;28;20110;-74
2023/10/16 12:26:04;;;;;;;2.28;0.95;;;;;;;13.31;43.11;93353.91;5065841;28;20076;-75
2023/10/16 12:28:33;;;;;;;6.05;1.05;;;;;;;13.17;43.83;93348.97;5073329;28;20048;-76
2023/10/16 12:31:02;;;;;;;2.67;1.30;;;;;;;13.12;44.71;93342.88;5069682;28;20048;-75
2023/10/16 12:33:30;;;;;;;2.40;1.50;;;;;;;13.27;44.87;93330.34;5070742;28;20120;-75
2023/10/16 12:36:00;;;;;;;2.78;1.20;;;;;;;12.93;43.95;93322.34;5066207;28;20052;-75
2023/10/16 12:38:27;;;;;;;3.75;1.30;;;;;;;13.17;43.79;93330.91;5067985;28;20127;-75
2023/10/16 12:40:55;;;;;;;3.03;1.50;;;;;;;13.09;44.31;93333.81;5070035;28;20052;-75
2023/10/16 12:43:25;;;;;;;2.85;1.55;;;;;;;13.32;43.95;93335.63;5071222;28;20041;-75
2023/10/16 12:45:56;;;;;;;3.38;1.55;;;;;;;13.43;43.20;93343.59;5068636;28;21136;-74
2023/10/16 12:48:24;;;;;;;1.90;1.17;;;;;;;13.56;43.24;93330.50;5067434;28;20052;-75
2023/10/16 12:50:51;;;;;;;3.75;1.70;;;;;;;13.50;42.82;93305.59;5068222;28;20047;-75
2023/10/16 12:53:17;;;;;;;4.10;1.00;;;;;;;13.76;43.26;93311.31;5065978;28;20059;-74
2023/10/16 12:55:49;;;;;;;3.53;0.93;;;;;;;13.56;43.14;93317.59;5068447;28;20056;-74
2023/10/16 12:58:18;;;;;;;2.85;1.00;;;;;;;13.26;41.97;93325.41;5073645;28;20040;-74
2023/10/16 13:00:46;;;;;;;2.80;1.20;;;;;;;13.20;41.96;93329.69;5067179;28;20051;-74
2023/10/16 13:03:15;;;;;;;2.15;1.02;;;;;;;13.12;42.39;93317.09;5062690;28;20419;-74
2023/10/16 13:05:42;;;;;;;2.83;1.35;;;;;;;13.04;42.24;93320.78;5073025;28;20475;-74
2023/10/16 13:08:09;;;;;;;2.28;0.95;;;;;;;13.17;42.61;93323.19;5073471;28;20065;-74
2023/10/16 13:10:36;;;;;;;2.03;1.13;;;;;;;12.99;42.92;93330.97;5068196;28;20051;-74